sensor_id;sensor_type;location;lat;lon;timestamp;P1;durP1;ratioP1;P2;durP2;ratioP2
23555;SDS011;11956;53.184;8.578;2023-07-24T00:02:16;5.80;;;4.90;;
23555;SDS011;11956;53.184;8.578;2023-07-24T00:05:17;5.55;;;4.75;;
23555;SDS011;11956;53.184;8.578;2023-07-24T00:08:18;5.88;;;4.65;;
23555;SDS011;11956;53.184;8.578;2023-07-24T00:11:19;8.85;;;5.25;;
23555;SDS011;11956;53.184;8.578;2023-07-24T00:14:19;7.75;;;4.68;;
23555;SDS011;11956;53.184;8.578;2023-07-24T00:17:20;6.55;;;4.50;;
23555;SDS011;11956;53.184;8.578;2023-07-24T00:20:21;5.68;;;4.57;;
23555;SDS011;11956;53.184;8.578;2023-07-24T00:23:24;7.07;;;5.07;;
23555;SDS011;11956;53.184;8.578;2023-07-24T00:26:25;5.93;;;4.80;;
23555;SDS011;11956;53.184;8.578;2023-07-24T00:29:26;8.45;;;5.55;;
23555;SDS011;11956;53.184;8.578;2023-07-24T00:32:27;7.65;;;5.15;;
23555;SDS011;11956;53.184;8.578;2023-07-24T00:35:29;7.95;;;5.43;;
23555;SDS011;11956;53.184;8.578;2023-07-24T00:38:30;6.95;;;5.63;;
23555;SDS011;11956;53.184;8.578;2023-07-24T00:41:31;10.00;;;5.32;;
23555;SDS011;11956;53.184;8.578;2023-07-24T00:44:32;8.05;;;5.30;;
23555;SDS011;11956;53.184;8.578;2023-07-24T00:47:32;10.15;;;5.85;;
23555;SDS011;11956;53.184;8.578;2023-07-24T00:50:33;9.18;;;5.45;;
23555;SDS011;11956;53.184;8.578;2023-07-24T00:53:36;7.07;;;5.53;;
23555;SDS011;11956;53.184;8.578;2023-07-24T00:56:37;8.43;;;5.13;;
23555;SDS011;11956;53.184;8.578;2023-07-24T00:59:38;5.90;;;4.97;;
23555;SDS011;11956;53.184;8.578;2023-07-24T01:02:39;10.25;;;5.63;;
23555;SDS011;11956;53.184;8.578;2023-07-24T01:05:40;9.48;;;6.07;;
23555;SDS011;11956;53.184;8.578;2023-07-24T01:08:41;6.90;;;5.22;;
23555;SDS011;11956;53.184;8.578;2023-07-24T01:12:04;8.45;;;5.63;;
23555;SDS011;11956;53.184;8.578;2023-07-24T01:15:32;7.95;;;5.38;;
23555;SDS011;11956;53.184;8.578;2023-07-24T01:18:37;7.05;;;6.05;;
23555;SDS011;11956;53.184;8.578;2023-07-24T01:21:44;9.27;;;6.10;;
23555;SDS011;11956;53.184;8.578;2023-07-24T01:28:27;7.78;;;6.00;;
23555;SDS011;11956;53.184;8.578;2023-07-24T01:31:28;8.13;;;6.15;;
23555;SDS011;11956;53.184;8.578;2023-07-24T01:34:29;7.80;;;6.07;;
23555;SDS011;11956;53.184;8.578;2023-07-24T01:37:30;10.48;;;7.05;;
23555;SDS011;11956;53.184;8.578;2023-07-24T01:40:34;8.13;;;6.13;;
23555;SDS011;11956;53.184;8.578;2023-07-24T01:43:35;8.65;;;6.80;;
23555;SDS011;11956;53.184;8.578;2023-07-24T01:46:36;8.10;;;6.82;;
23555;SDS011;11956;53.184;8.578;2023-07-24T01:49:37;7.43;;;6.68;;
23555;SDS011;11956;53.184;8.578;2023-07-24T01:52:38;9.90;;;7.35;;
23555;SDS011;11956;53.184;8.578;2023-07-24T01:55:38;9.50;;;7.45;;
23555;SDS011;11956;53.184;8.578;2023-07-24T01:58:39;9.93;;;7.55;;
23555;SDS011;11956;53.184;8.578;2023-07-24T02:01:40;9.35;;;7.72;;
23555;SDS011;11956;53.184;8.578;2023-07-24T02:04:42;12.15;;;7.82;;
23555;SDS011;11956;53.184;8.578;2023-07-24T02:07:42;9.68;;;8.15;;
23555;SDS011;11956;53.184;8.578;2023-07-24T02:10:43;10.45;;;8.32;;
23555;SDS011;11956;53.184;8.578;2023-07-24T02:13:49;11.23;;;9.00;;
23555;SDS011;11956;53.184;8.578;2023-07-24T02:16:50;11.18;;;8.27;;
23555;SDS011;11956;53.184;8.578;2023-07-24T02:19:51;9.48;;;8.05;;
23555;SDS011;11956;53.184;8.578;2023-07-24T02:22:51;7.85;;;7.07;;
23555;SDS011;11956;53.184;8.578;2023-07-24T02:25:52;9.15;;;7.75;;
23555;SDS011;11956;53.184;8.578;2023-07-24T02:28:53;10.23;;;8.30;;
23555;SDS011;11956;53.184;8.578;2023-07-24T02:31:57;8.30;;;7.50;;
23555;SDS011;11956;53.184;8.578;2023-07-24T02:34:58;8.23;;;7.25;;
23555;SDS011;11956;53.184;8.578;2023-07-24T02:37:59;8.65;;;7.40;;
23555;SDS011;11956;53.184;8.578;2023-07-24T02:41:00;10.70;;;7.53;;
23555;SDS011;11956;53.184;8.578;2023-07-24T02:44:02;11.80;;;7.53;;
23555;SDS011;11956;53.184;8.578;2023-07-24T02:47:04;10.07;;;7.45;;
23555;SDS011;11956;53.184;8.578;2023-07-24T02:50:05;8.48;;;6.88;;
23555;SDS011;11956;53.184;8.578;2023-07-24T02:53:06;10.57;;;6.90;;
23555;SDS011;11956;53.184;8.578;2023-07-24T02:56:07;8.15;;;7.28;;
23555;SDS011;11956;53.184;8.578;2023-07-24T02:59:08;8.07;;;7.28;;
23555;SDS011;11956;53.184;8.578;2023-07-24T03:02:08;9.13;;;7.72;;
23555;SDS011;11956;53.184;8.578;2023-07-24T03:05:09;9.30;;;7.13;;
23555;SDS011;11956;53.184;8.578;2023-07-24T03:08:10;10.20;;;7.43;;
23555;SDS011;11956;53.184;8.578;2023-07-24T03:11:11;9.35;;;7.22;;
23555;SDS011;11956;53.184;8.578;2023-07-24T03:14:12;10.85;;;7.65;;
23555;SDS011;11956;53.184;8.578;2023-07-24T03:17:13;15.73;;;7.88;;
23555;SDS011;11956;53.184;8.578;2023-07-24T03:20:17;8.77;;;7.35;;
23555;SDS011;11956;53.184;8.578;2023-07-24T03:23:19;10.30;;;7.95;;
23555;SDS011;11956;53.184;8.578;2023-07-24T03:26:20;10.45;;;7.95;;
23555;SDS011;11956;53.184;8.578;2023-07-24T03:29:21;11.63;;;8.23;;
23555;SDS011;11956;53.184;8.578;2023-07-24T03:32:22;15.73;;;11.77;;
23555;SDS011;11956;53.184;8.578;2023-07-24T03:35:23;12.10;;;8.75;;
23555;SDS011;11956;53.184;8.578;2023-07-24T03:38:25;9.68;;;8.60;;
23555;SDS011;11956;53.184;8.578;2023-07-24T03:41:26;11.27;;;9.00;;
23555;SDS011;11956;53.184;8.578;2023-07-24T03:44:28;11.23;;;8.70;;
23555;SDS011;11956;53.184;8.578;2023-07-24T03:47:29;13.10;;;9.15;;
23555;SDS011;11956;53.184;8.578;2023-07-24T03:50:30;10.40;;;7.90;;
23555;SDS011;11956;53.184;8.578;2023-07-24T03:53:31;9.75;;;8.40;;
23555;SDS011;11956;53.184;8.578;2023-07-24T03:56:32;10.25;;;7.32;;
23555;SDS011;11956;53.184;8.578;2023-07-24T03:59:33;9.57;;;8.07;;
23555;SDS011;11956;53.184;8.578;2023-07-24T04:02:33;9.40;;;7.78;;
23555;SDS011;11956;53.184;8.578;2023-07-24T04:05:35;9.18;;;7.97;;
23555;SDS011;11956;53.184;8.578;2023-07-24T04:08:36;8.50;;;7.53;;
23555;SDS011;11956;53.184;8.578;2023-07-24T04:11:37;8.63;;;7.45;;
23555;SDS011;11956;53.184;8.578;2023-07-24T04:14:38;9.55;;;7.00;;
23555;SDS011;11956;53.184;8.578;2023-07-24T04:17:39;8.80;;;7.53;;
23555;SDS011;11956;53.184;8.578;2023-07-24T04:20:41;8.57;;;6.73;;
23555;SDS011;11956;53.184;8.578;2023-07-24T04:23:42;9.75;;;7.05;;
23555;SDS011;11956;53.184;8.578;2023-07-24T04:26:43;8.82;;;6.60;;
23555;SDS011;11956;53.184;8.578;2023-07-24T04:29:44;10.30;;;6.80;;
23555;SDS011;11956;53.184;8.578;2023-07-24T04:32:45;9.20;;;6.47;;
23555;SDS011;11956;53.184;8.578;2023-07-24T04:35:49;8.10;;;5.75;;
23555;SDS011;11956;53.184;8.578;2023-07-24T04:38:50;8.77;;;5.90;;
23555;SDS011;11956;53.184;8.578;2023-07-24T04:41:51;6.47;;;5.70;;
23555;SDS011;11956;53.184;8.578;2023-07-24T04:44:52;6.70;;;5.25;;
23555;SDS011;11956;53.184;8.578;2023-07-24T04:47:53;7.68;;;5.30;;
23555;SDS011;11956;53.184;8.578;2023-07-24T04:50:54;6.72;;;5.15;;
23555;SDS011;11956;53.184;8.578;2023-07-24T04:53:56;5.75;;;5.03;;
23555;SDS011;11956;53.184;8.578;2023-07-24T04:56:57;5.68;;;5.03;;
23555;SDS011;11956;53.184;8.578;2023-07-24T04:59:57;5.63;;;4.68;;
23555;SDS011;11956;53.184;8.578;2023-07-24T05:02:58;6.40;;;4.53;;
23555;SDS011;11956;53.184;8.578;2023-07-24T05:05:59;6.30;;;5.20;;
23555;SDS011;11956;53.184;8.578;2023-07-24T05:09:00;6.93;;;5.18;;
23555;SDS011;11956;53.184;8.578;2023-07-24T05:12:02;7.55;;;5.35;;
23555;SDS011;11956;53.184;8.578;2023-07-24T05:15:03;6.78;;;5.38;;
23555;SDS011;11956;53.184;8.578;2023-07-24T05:18:05;7.60;;;5.78;;
23555;SDS011;11956;53.184;8.578;2023-07-24T05:21:06;6.88;;;5.10;;
23555;SDS011;11956;53.184;8.578;2023-07-24T05:24:06;7.00;;;5.20;;
23555;SDS011;11956;53.184;8.578;2023-07-24T05:27:07;5.35;;;4.85;;
23555;SDS011;11956;53.184;8.578;2023-07-24T05:30:09;6.25;;;5.07;;
23555;SDS011;11956;53.184;8.578;2023-07-24T05:33:10;7.82;;;5.65;;
23555;SDS011;11956;53.184;8.578;2023-07-24T05:36:11;6.45;;;5.63;;
23555;SDS011;11956;53.184;8.578;2023-07-24T05:39:12;6.63;;;5.25;;
23555;SDS011;11956;53.184;8.578;2023-07-24T05:42:12;6.18;;;5.05;;
23555;SDS011;11956;53.184;8.578;2023-07-24T05:45:22;5.95;;;5.30;;
23555;SDS011;11956;53.184;8.578;2023-07-24T05:48:23;7.13;;;5.75;;
23555;SDS011;11956;53.184;8.578;2023-07-24T05:51:25;6.40;;;5.03;;
23555;SDS011;11956;53.184;8.578;2023-07-24T05:54:26;7.78;;;5.03;;
23555;SDS011;11956;53.184;8.578;2023-07-24T05:57:26;6.22;;;5.13;;
23555;SDS011;11956;53.184;8.578;2023-07-24T06:00:27;6.65;;;5.43;;
23555;SDS011;11956;53.184;8.578;2023-07-24T06:03:28;7.00;;;5.85;;
23555;SDS011;11956;53.184;8.578;2023-07-24T06:06:29;5.60;;;5.10;;
23555;SDS011;11956;53.184;8.578;2023-07-24T06:09:30;6.30;;;5.00;;
23555;SDS011;11956;53.184;8.578;2023-07-24T06:12:31;5.82;;;4.97;;
23555;SDS011;11956;53.184;8.578;2023-07-24T06:15:32;7.63;;;5.70;;
23555;SDS011;11956;53.184;8.578;2023-07-24T06:18:33;6.38;;;5.78;;
23555;SDS011;11956;53.184;8.578;2023-07-24T06:21:34;8.00;;;5.50;;
23555;SDS011;11956;53.184;8.578;2023-07-24T06:24:35;7.18;;;5.65;;
23555;SDS011;11956;53.184;8.578;2023-07-24T06:27:36;7.13;;;5.38;;
23555;SDS011;11956;53.184;8.578;2023-07-24T06:30:38;8.30;;;5.78;;
23555;SDS011;11956;53.184;8.578;2023-07-24T06:33:39;7.40;;;5.82;;
23555;SDS011;11956;53.184;8.578;2023-07-24T06:36:40;7.30;;;5.68;;
23555;SDS011;11956;53.184;8.578;2023-07-24T06:39:40;7.63;;;5.80;;
23555;SDS011;11956;53.184;8.578;2023-07-24T06:42:42;7.82;;;6.18;;
23555;SDS011;11956;53.184;8.578;2023-07-24T06:45:43;8.50;;;6.22;;
23555;SDS011;11956;53.184;8.578;2023-07-24T06:48:43;9.00;;;6.03;;
23555;SDS011;11956;53.184;8.578;2023-07-24T06:51:44;6.82;;;6.18;;
23555;SDS011;11956;53.184;8.578;2023-07-24T06:54:45;7.80;;;5.88;;
23555;SDS011;11956;53.184;8.578;2023-07-24T06:57:46;10.57;;;7.00;;
23555;SDS011;11956;53.184;8.578;2023-07-24T07:00:47;11.18;;;6.75;;
23555;SDS011;11956;53.184;8.578;2023-07-24T07:03:48;10.73;;;6.38;;
23555;SDS011;11956;53.184;8.578;2023-07-24T07:06:49;9.02;;;6.40;;
23555;SDS011;11956;53.184;8.578;2023-07-24T07:09:50;9.80;;;7.32;;
23555;SDS011;11956;53.184;8.578;2023-07-24T07:12:50;8.52;;;6.43;;
23555;SDS011;11956;53.184;8.578;2023-07-24T07:15:51;8.32;;;7.30;;
23555;SDS011;11956;53.184;8.578;2023-07-24T07:18:52;7.88;;;6.90;;
23555;SDS011;11956;53.184;8.578;2023-07-24T07:21:53;9.95;;;7.38;;
23555;SDS011;11956;53.184;8.578;2023-07-24T07:24:54;7.82;;;7.03;;
23555;SDS011;11956;53.184;8.578;2023-07-24T07:27:55;9.45;;;7.22;;
23555;SDS011;11956;53.184;8.578;2023-07-24T07:30:55;9.90;;;7.53;;
23555;SDS011;11956;53.184;8.578;2023-07-24T07:33:56;8.45;;;7.10;;
23555;SDS011;11956;53.184;8.578;2023-07-24T07:36:57;8.82;;;7.30;;
23555;SDS011;11956;53.184;8.578;2023-07-24T07:39:58;7.07;;;6.38;;
23555;SDS011;11956;53.184;8.578;2023-07-24T07:42:59;8.85;;;6.57;;
23555;SDS011;11956;53.184;8.578;2023-07-24T07:46:00;9.20;;;7.63;;
23555;SDS011;11956;53.184;8.578;2023-07-24T07:49:00;7.03;;;6.32;;
23555;SDS011;11956;53.184;8.578;2023-07-24T07:52:01;8.05;;;6.57;;
23555;SDS011;11956;53.184;8.578;2023-07-24T07:55:02;7.95;;;7.15;;
23555;SDS011;11956;53.184;8.578;2023-07-24T07:58:06;8.35;;;7.10;;
23555;SDS011;11956;53.184;8.578;2023-07-24T08:01:07;7.45;;;6.75;;
23555;SDS011;11956;53.184;8.578;2023-07-24T08:04:08;7.22;;;6.40;;
23555;SDS011;11956;53.184;8.578;2023-07-24T08:07:08;7.60;;;6.68;;
23555;SDS011;11956;53.184;8.578;2023-07-24T08:10:09;8.65;;;7.28;;
23555;SDS011;11956;53.184;8.578;2023-07-24T08:13:10;9.88;;;7.55;;
23555;SDS011;11956;53.184;8.578;2023-07-24T08:16:14;8.15;;;6.60;;
23555;SDS011;11956;53.184;8.578;2023-07-24T08:19:18;8.45;;;6.80;;
23555;SDS011;11956;53.184;8.578;2023-07-24T08:22:19;8.63;;;6.50;;
23555;SDS011;11956;53.184;8.578;2023-07-24T08:25:20;8.15;;;6.50;;
23555;SDS011;11956;53.184;8.578;2023-07-24T08:28:21;8.88;;;6.45;;
23555;SDS011;11956;53.184;8.578;2023-07-24T08:31:22;8.45;;;6.75;;
23555;SDS011;11956;53.184;8.578;2023-07-24T08:34:23;7.47;;;6.63;;
23555;SDS011;11956;53.184;8.578;2023-07-24T08:37:24;10.35;;;7.03;;
23555;SDS011;11956;53.184;8.578;2023-07-24T08:40:24;8.50;;;7.57;;
23555;SDS011;11956;53.184;8.578;2023-07-24T08:43:25;7.93;;;7.18;;
23555;SDS011;11956;53.184;8.578;2023-07-24T08:46:27;8.57;;;7.50;;
23555;SDS011;11956;53.184;8.578;2023-07-24T08:49:29;7.90;;;7.10;;
23555;SDS011;11956;53.184;8.578;2023-07-24T08:52:30;7.57;;;6.87;;
23555;SDS011;11956;53.184;8.578;2023-07-24T08:55:32;8.15;;;7.13;;
23555;SDS011;11956;53.184;8.578;2023-07-24T08:58:34;9.75;;;7.05;;
23555;SDS011;11956;53.184;8.578;2023-07-24T09:01:36;7.13;;;6.43;;
23555;SDS011;11956;53.184;8.578;2023-07-24T09:04:37;10.63;;;7.40;;
23555;SDS011;11956;53.184;8.578;2023-07-24T09:07:37;7.70;;;6.90;;
23555;SDS011;11956;53.184;8.578;2023-07-24T09:10:38;9.00;;;7.30;;
23555;SDS011;11956;53.184;8.578;2023-07-24T09:13:41;8.00;;;7.03;;
23555;SDS011;11956;53.184;8.578;2023-07-24T09:16:43;8.18;;;6.80;;
23555;SDS011;11956;53.184;8.578;2023-07-24T09:19:44;7.18;;;6.40;;
23555;SDS011;11956;53.184;8.578;2023-07-24T09:22:51;10.32;;;6.53;;
23555;SDS011;11956;53.184;8.578;2023-07-24T09:25:54;8.70;;;6.15;;
23555;SDS011;11956;53.184;8.578;2023-07-24T09:28:55;9.25;;;7.20;;
23555;SDS011;11956;53.184;8.578;2023-07-24T09:31:55;6.75;;;5.57;;
23555;SDS011;11956;53.184;8.578;2023-07-24T09:34:56;7.20;;;5.60;;
23555;SDS011;11956;53.184;8.578;2023-07-24T09:38:04;7.35;;;5.65;;
23555;SDS011;11956;53.184;8.578;2023-07-24T09:44:13;9.18;;;8.27;;
23555;SDS011;11956;53.184;8.578;2023-07-24T09:47:14;7.13;;;6.53;;
23555;SDS011;11956;53.184;8.578;2023-07-24T09:50:15;7.82;;;6.97;;
23555;SDS011;11956;53.184;8.578;2023-07-24T09:56:56;6.55;;;5.88;;
23555;SDS011;11956;53.184;8.578;2023-07-24T09:59:59;6.05;;;4.32;;
23555;SDS011;11956;53.184;8.578;2023-07-24T10:03:01;5.37;;;4.30;;
23555;SDS011;11956;53.184;8.578;2023-07-24T10:06:02;4.75;;;3.50;;
23555;SDS011;11956;53.184;8.578;2023-07-24T10:09:03;5.25;;;3.25;;
23555;SDS011;11956;53.184;8.578;2023-07-24T10:12:06;4.30;;;3.90;;
23555;SDS011;11956;53.184;8.578;2023-07-24T10:15:08;4.43;;;4.05;;
23555;SDS011;11956;53.184;8.578;2023-07-24T10:18:10;4.28;;;3.88;;
23555;SDS011;11956;53.184;8.578;2023-07-24T10:21:11;4.07;;;3.42;;
23555;SDS011;11956;53.184;8.578;2023-07-24T10:24:12;4.45;;;3.95;;
23555;SDS011;11956;53.184;8.578;2023-07-24T10:27:15;5.72;;;4.68;;
23555;SDS011;11956;53.184;8.578;2023-07-24T10:30:16;4.82;;;4.40;;
23555;SDS011;11956;53.184;8.578;2023-07-24T10:33:17;5.78;;;4.25;;
23555;SDS011;11956;53.184;8.578;2023-07-24T10:36:20;6.07;;;4.40;;
23555;SDS011;11956;53.184;8.578;2023-07-24T10:39:23;6.43;;;4.63;;
23555;SDS011;11956;53.184;8.578;2023-07-24T10:42:24;5.88;;;4.25;;
23555;SDS011;11956;53.184;8.578;2023-07-24T10:45:24;5.30;;;3.88;;
23555;SDS011;11956;53.184;8.578;2023-07-24T10:48:26;4.50;;;3.72;;
23555;SDS011;11956;53.184;8.578;2023-07-24T10:51:27;4.40;;;4.00;;
23555;SDS011;11956;53.184;8.578;2023-07-24T10:54:31;4.93;;;4.30;;
23555;SDS011;11956;53.184;8.578;2023-07-24T10:57:32;6.10;;;4.70;;
23555;SDS011;11956;53.184;8.578;2023-07-24T11:00:34;6.03;;;5.20;;
23555;SDS011;11956;53.184;8.578;2023-07-24T11:03:35;5.60;;;5.07;;
23555;SDS011;11956;53.184;8.578;2023-07-24T11:06:37;5.57;;;5.07;;
23555;SDS011;11956;53.184;8.578;2023-07-24T11:09:38;5.28;;;4.78;;
23555;SDS011;11956;53.184;8.578;2023-07-24T11:12:40;6.57;;;5.23;;
23555;SDS011;11956;53.184;8.578;2023-07-24T11:15:41;6.50;;;5.78;;
23555;SDS011;11956;53.184;8.578;2023-07-24T11:18:46;6.00;;;5.22;;
23555;SDS011;11956;53.184;8.578;2023-07-24T11:21:49;6.30;;;5.20;;
23555;SDS011;11956;53.184;8.578;2023-07-24T11:24:50;6.47;;;5.70;;
23555;SDS011;11956;53.184;8.578;2023-07-24T11:27:50;7.38;;;4.68;;
23555;SDS011;11956;53.184;8.578;2023-07-24T11:30:51;6.00;;;4.70;;
23555;SDS011;11956;53.184;8.578;2023-07-24T11:33:52;5.95;;;5.20;;
23555;SDS011;11956;53.184;8.578;2023-07-24T11:36:54;4.88;;;4.22;;
23555;SDS011;11956;53.184;8.578;2023-07-24T11:39:56;5.97;;;4.22;;
23555;SDS011;11956;53.184;8.578;2023-07-24T11:42:58;5.97;;;4.95;;
23555;SDS011;11956;53.184;8.578;2023-07-24T11:45:58;6.75;;;4.90;;
23555;SDS011;11956;53.184;8.578;2023-07-24T11:48:59;5.93;;;4.85;;
23555;SDS011;11956;53.184;8.578;2023-07-24T11:52:04;5.95;;;5.10;;
23555;SDS011;11956;53.184;8.578;2023-07-24T11:55:06;5.68;;;5.10;;
23555;SDS011;11956;53.184;8.578;2023-07-24T11:58:08;7.88;;;5.28;;
23555;SDS011;11956;53.184;8.578;2023-07-24T12:01:15;5.78;;;4.57;;
23555;SDS011;11956;53.184;8.578;2023-07-24T12:04:17;4.47;;;3.92;;
23555;SDS011;11956;53.184;8.578;2023-07-24T12:07:18;5.78;;;4.75;;
23555;SDS011;11956;53.184;8.578;2023-07-24T12:10:26;7.20;;;4.57;;
23555;SDS011;11956;53.184;8.578;2023-07-24T12:13:28;4.75;;;4.30;;
23555;SDS011;11956;53.184;8.578;2023-07-24T12:16:29;6.07;;;4.90;;
23555;SDS011;11956;53.184;8.578;2023-07-24T12:19:30;5.20;;;4.70;;
23555;SDS011;11956;53.184;8.578;2023-07-24T12:22:32;4.72;;;4.20;;
23555;SDS011;11956;53.184;8.578;2023-07-24T12:25:33;5.85;;;4.80;;
23555;SDS011;11956;53.184;8.578;2023-07-24T12:28:33;6.00;;;4.75;;
23555;SDS011;11956;53.184;8.578;2023-07-24T12:31:34;4.85;;;4.25;;
23555;SDS011;11956;53.184;8.578;2023-07-24T12:34:35;4.68;;;4.20;;
23555;SDS011;11956;53.184;8.578;2023-07-24T12:37:36;5.70;;;4.57;;
23555;SDS011;11956;53.184;8.578;2023-07-24T12:40:39;6.28;;;4.05;;
23555;SDS011;11956;53.184;8.578;2023-07-24T12:43:40;5.88;;;4.80;;
23555;SDS011;11956;53.184;8.578;2023-07-24T12:46:41;7.43;;;4.28;;
23555;SDS011;11956;53.184;8.578;2023-07-24T12:49:41;5.47;;;4.38;;
23555;SDS011;11956;53.184;8.578;2023-07-24T12:52:42;6.07;;;4.38;;
23555;SDS011;11956;53.184;8.578;2023-07-24T12:55:43;5.90;;;4.47;;
23555;SDS011;11956;53.184;8.578;2023-07-24T12:58:44;4.90;;;4.40;;
23555;SDS011;11956;53.184;8.578;2023-07-24T13:01:45;5.78;;;4.57;;
23555;SDS011;11956;53.184;8.578;2023-07-24T13:04:46;7.35;;;4.72;;
23555;SDS011;11956;53.184;8.578;2023-07-24T13:07:47;4.85;;;3.90;;
23555;SDS011;11956;53.184;8.578;2023-07-24T13:10:48;5.90;;;4.15;;
23555;SDS011;11956;53.184;8.578;2023-07-24T13:13:49;6.10;;;5.00;;
23555;SDS011;11956;53.184;8.578;2023-07-24T13:16:50;6.10;;;4.93;;
23555;SDS011;11956;53.184;8.578;2023-07-24T13:19:51;8.55;;;5.45;;
23555;SDS011;11956;53.184;8.578;2023-07-24T13:22:52;5.05;;;4.60;;
23555;SDS011;11956;53.184;8.578;2023-07-24T13:25:53;7.13;;;5.32;;
23555;SDS011;11956;53.184;8.578;2023-07-24T13:28:54;7.50;;;5.05;;
23555;SDS011;11956;53.184;8.578;2023-07-24T13:31:55;5.63;;;4.88;;
23555;SDS011;11956;53.184;8.578;2023-07-24T13:34:55;6.68;;;5.57;;
23555;SDS011;11956;53.184;8.578;2023-07-24T13:37:57;7.10;;;6.15;;
23555;SDS011;11956;53.184;8.578;2023-07-24T13:40:58;7.22;;;6.13;;
23555;SDS011;11956;53.184;8.578;2023-07-24T13:44:02;7.15;;;6.30;;
23555;SDS011;11956;53.184;8.578;2023-07-24T13:47:03;7.13;;;5.88;;
23555;SDS011;11956;53.184;8.578;2023-07-24T13:50:05;7.57;;;5.63;;
23555;SDS011;11956;53.184;8.578;2023-07-24T13:53:07;7.30;;;5.97;;
23555;SDS011;11956;53.184;8.578;2023-07-24T13:56:08;7.15;;;5.75;;
23555;SDS011;11956;53.184;8.578;2023-07-24T13:59:09;6.28;;;5.68;;
23555;SDS011;11956;53.184;8.578;2023-07-24T14:02:10;7.38;;;6.07;;
23555;SDS011;11956;53.184;8.578;2023-07-24T14:05:12;8.95;;;6.50;;
23555;SDS011;11956;53.184;8.578;2023-07-24T14:08:13;7.57;;;5.75;;
23555;SDS011;11956;53.184;8.578;2023-07-24T14:11:14;7.63;;;5.35;;
23555;SDS011;11956;53.184;8.578;2023-07-24T14:14:15;7.18;;;5.65;;
23555;SDS011;11956;53.184;8.578;2023-07-24T14:17:18;8.95;;;6.20;;
23555;SDS011;11956;53.184;8.578;2023-07-24T14:20:19;6.80;;;5.63;;
23555;SDS011;11956;53.184;8.578;2023-07-24T14:23:20;6.38;;;5.43;;
23555;SDS011;11956;53.184;8.578;2023-07-24T14:26:21;6.20;;;5.32;;
23555;SDS011;11956;53.184;8.578;2023-07-24T14:29:23;5.93;;;5.10;;
23555;SDS011;11956;53.184;8.578;2023-07-24T14:32:24;7.32;;;4.90;;
23555;SDS011;11956;53.184;8.578;2023-07-24T14:35:25;8.20;;;5.43;;
23555;SDS011;11956;53.184;8.578;2023-07-24T14:38:26;6.97;;;5.25;;
23555;SDS011;11956;53.184;8.578;2023-07-24T14:41:27;8.63;;;5.00;;
23555;SDS011;11956;53.184;8.578;2023-07-24T14:44:28;7.00;;;4.80;;
23555;SDS011;11956;53.184;8.578;2023-07-24T14:47:29;6.15;;;4.78;;
23555;SDS011;11956;53.184;8.578;2023-07-24T14:50:30;7.10;;;5.00;;
23555;SDS011;11956;53.184;8.578;2023-07-24T14:53:31;7.88;;;5.10;;
23555;SDS011;11956;53.184;8.578;2023-07-24T14:56:32;7.25;;;3.90;;
23555;SDS011;11956;53.184;8.578;2023-07-24T14:59:33;10.00;;;3.90;;
23555;SDS011;11956;53.184;8.578;2023-07-24T15:02:34;8.55;;;4.00;;
23555;SDS011;11956;53.184;8.578;2023-07-24T15:05:35;8.00;;;3.53;;
23555;SDS011;11956;53.184;8.578;2023-07-24T15:08:36;9.05;;;3.10;;
23555;SDS011;11956;53.184;8.578;2023-07-24T15:11:37;10.45;;;3.10;;
23555;SDS011;11956;53.184;8.578;2023-07-24T15:14:38;8.80;;;3.13;;
23555;SDS011;11956;53.184;8.578;2023-07-24T15:17:39;5.57;;;2.90;;
23555;SDS011;11956;53.184;8.578;2023-07-24T15:20:40;6.63;;;3.60;;
23555;SDS011;11956;53.184;8.578;2023-07-24T15:23:41;6.35;;;2.58;;
23555;SDS011;11956;53.184;8.578;2023-07-24T15:26:42;5.13;;;2.80;;
23555;SDS011;11956;53.184;8.578;2023-07-24T15:29:46;9.33;;;3.97;;
23555;SDS011;11956;53.184;8.578;2023-07-24T15:32:47;11.43;;;3.85;;
23555;SDS011;11956;53.184;8.578;2023-07-24T15:35:49;8.77;;;3.97;;
23555;SDS011;11956;53.184;8.578;2023-07-24T15:38:50;9.93;;;4.13;;
23555;SDS011;11956;53.184;8.578;2023-07-24T15:41:50;10.60;;;4.13;;
23555;SDS011;11956;53.184;8.578;2023-07-24T15:44:51;12.90;;;4.20;;
23555;SDS011;11956;53.184;8.578;2023-07-24T15:47:52;17.23;;;5.53;;
23555;SDS011;11956;53.184;8.578;2023-07-24T15:50:53;11.80;;;4.25;;
23555;SDS011;11956;53.184;8.578;2023-07-24T15:53:54;6.03;;;2.83;;
23555;SDS011;11956;53.184;8.578;2023-07-24T15:56:55;3.15;;;2.05;;
23555;SDS011;11956;53.184;8.578;2023-07-24T15:59:56;3.40;;;1.83;;
23555;SDS011;11956;53.184;8.578;2023-07-24T16:02:57;5.63;;;2.20;;
23555;SDS011;11956;53.184;8.578;2023-07-24T16:05:58;7.28;;;2.55;;
23555;SDS011;11956;53.184;8.578;2023-07-24T16:08:59;5.30;;;2.10;;
23555;SDS011;11956;53.184;8.578;2023-07-24T16:12:00;4.60;;;2.10;;
23555;SDS011;11956;53.184;8.578;2023-07-24T16:15:02;3.13;;;1.83;;
23555;SDS011;11956;53.184;8.578;2023-07-24T16:18:03;3.45;;;2.45;;
23555;SDS011;11956;53.184;8.578;2023-07-24T16:21:04;3.53;;;2.10;;
23555;SDS011;11956;53.184;8.578;2023-07-24T16:24:04;4.25;;;2.70;;
23555;SDS011;11956;53.184;8.578;2023-07-24T16:27:05;6.63;;;2.83;;
23555;SDS011;11956;53.184;8.578;2023-07-24T16:30:07;3.78;;;2.45;;
23555;SDS011;11956;53.184;8.578;2023-07-24T16:33:09;4.82;;;3.25;;
23555;SDS011;11956;53.184;8.578;2023-07-24T16:36:10;4.10;;;3.20;;
23555;SDS011;11956;53.184;8.578;2023-07-24T16:39:11;4.82;;;3.20;;
23555;SDS011;11956;53.184;8.578;2023-07-24T16:42:12;3.50;;;3.00;;
23555;SDS011;11956;53.184;8.578;2023-07-24T16:45:12;6.40;;;4.65;;
23555;SDS011;11956;53.184;8.578;2023-07-24T16:48:13;5.13;;;4.53;;
23555;SDS011;11956;53.184;8.578;2023-07-24T16:51:14;5.90;;;5.00;;
23555;SDS011;11956;53.184;8.578;2023-07-24T16:54:16;6.65;;;5.10;;
23555;SDS011;11956;53.184;8.578;2023-07-24T16:57:17;6.55;;;4.38;;
23555;SDS011;11956;53.184;8.578;2023-07-24T17:00:17;5.55;;;4.53;;
23555;SDS011;11956;53.184;8.578;2023-07-24T17:03:18;5.40;;;4.50;;
23555;SDS011;11956;53.184;8.578;2023-07-24T17:06:19;5.07;;;3.72;;
23555;SDS011;11956;53.184;8.578;2023-07-24T17:09:20;5.57;;;3.35;;
23555;SDS011;11956;53.184;8.578;2023-07-24T17:12:21;5.32;;;3.10;;
23555;SDS011;11956;53.184;8.578;2023-07-24T17:15:22;6.03;;;3.33;;
23555;SDS011;11956;53.184;8.578;2023-07-24T17:18:23;6.10;;;3.60;;
23555;SDS011;11956;53.184;8.578;2023-07-24T17:21:25;4.30;;;3.60;;
23555;SDS011;11956;53.184;8.578;2023-07-24T17:24:26;4.50;;;3.60;;
23555;SDS011;11956;53.184;8.578;2023-07-24T17:27:27;4.85;;;3.53;;
23555;SDS011;11956;53.184;8.578;2023-07-24T17:30:30;8.20;;;3.55;;
23555;SDS011;11956;53.184;8.578;2023-07-24T17:33:31;5.25;;;3.70;;
23555;SDS011;11956;53.184;8.578;2023-07-24T17:36:32;6.13;;;4.18;;
23555;SDS011;11956;53.184;8.578;2023-07-24T17:39:33;7.95;;;4.45;;
23555;SDS011;11956;53.184;8.578;2023-07-24T17:42:34;5.85;;;5.25;;
23555;SDS011;11956;53.184;8.578;2023-07-24T17:45:36;7.70;;;5.10;;
23555;SDS011;11956;53.184;8.578;2023-07-24T17:48:37;7.80;;;5.63;;
23555;SDS011;11956;53.184;8.578;2023-07-24T17:51:38;5.68;;;4.78;;
23555;SDS011;11956;53.184;8.578;2023-07-24T17:54:40;7.15;;;5.40;;
23555;SDS011;11956;53.184;8.578;2023-07-24T17:57:47;6.80;;;5.53;;
23555;SDS011;11956;53.184;8.578;2023-07-24T18:00:50;7.32;;;5.20;;
23555;SDS011;11956;53.184;8.578;2023-07-24T18:03:51;9.32;;;6.20;;
23555;SDS011;11956;53.184;8.578;2023-07-24T18:06:52;10.13;;;6.38;;
23555;SDS011;11956;53.184;8.578;2023-07-24T18:09:53;7.18;;;5.65;;
23555;SDS011;11956;53.184;8.578;2023-07-24T18:12:53;6.75;;;5.43;;
23555;SDS011;11956;53.184;8.578;2023-07-24T18:15:54;8.10;;;5.78;;
23555;SDS011;11956;53.184;8.578;2023-07-24T18:18:55;7.53;;;5.38;;
23555;SDS011;11956;53.184;8.578;2023-07-24T18:21:56;8.13;;;5.43;;